Time;durP1;ratioP1;P1;durP2;ratioP2;P2;SDS_P1;SDS_P2;PMS_P1;PMS_P2;Temp;Humidity;BMP_temperature;BMP_pressure;BME280_temperature;BME280_humidity;BME280_pressure;Samples;Min_cycle;Max_cycle;Signal;HPM_P1;HPM_P2
2021/01/03 00:02:23;;;;;;;9.73;6.72;;;2.60;99.90;;;;;;5034160;28;20668;-87
2021/01/03 00:04:50;;;;;;;8.68;6.72;;;2.50;99.90;;;;;;5033172;28;20225;-87
2021/01/03 00:07:20;;;;;;;9.45;6.50;;;2.60;99.90;;;;;;5034193;28;20779;-89
2021/01/03 00:09:47;;;;;;;6.25;5.25;;;2.60;99.90;;;;;;5034167;28;20214;-92
2021/01/03 00:12:13;;;;;;;6.80;5.57;;;2.60;99.90;;;;;;5033178;28;20682;-89
2021/01/03 00:14:40;;;;;;;11.48;7.03;;;2.50;99.90;;;;;;5033181;28;20290;-90
2021/01/03 00:17:07;;;;;;;10.57;5.80;;;2.50;99.90;;;;;;5033652;28;20665;-88
2021/01/03 00:19:33;;;;;;;7.82;5.60;;;2.50;99.90;;;;;;5033650;28;20291;-88
2021/01/03 00:22:00;;;;;;;7.65;6.05;;;2.40;99.90;;;;;;5033574;28;20662;-89
2021/01/03 00:24:26;;;;;;;9.00;7.15;;;2.40;99.90;;;;;;5034626;28;20234;-89
2021/01/03 00:26:53;;;;;;;7.85;5.55;;;2.40;99.90;;;;;;5033795;28;20306;-89
2021/01/03 00:29:19;;;;;;;7.30;5.20;;;2.50;99.90;;;;;;5032940;28;20302;-88
2021/01/03 00:31:48;;;;;;;7.70;5.70;;;2.40;99.90;;;;;;5033426;28;20227;-87
2021/01/03 00:34:16;;;;;;;10.93;6.63;;;2.40;99.90;;;;;;5032364;28;20207;-91
2021/01/03 00:36:43;;;;;;;5.97;4.68;;;2.40;99.90;;;;;;5036324;28;20293;-89
2021/01/03 00:39:09;;;;;;;7.15;5.07;;;2.40;99.90;;;;;;5037276;28;20209;-89
2021/01/03 00:41:37;;;;;;;7.28;5.13;;;2.40;99.90;;;;;;5037811;28;20290;-86
2021/01/03 00:44:05;;;;;;;6.45;5.63;;;2.40;99.90;;;;;;5036959;28;20289;-87
2021/01/03 00:46:31;;;;;;;9.27;6.00;;;2.40;99.90;;;;;;5038028;28;20289;-88
2021/01/03 00:48:57;;;;;;;9.20;6.63;;;2.40;99.90;;;;;;5037627;28;20681;-86
2021/01/03 00:51:24;;;;;;;7.07;5.40;;;2.40;99.90;;;;;;5037778;28;20258;-87
2021/01/03 00:53:51;;;;;;;8.48;5.90;;;2.50;99.90;;;;;;5001463;28;20214;-88
2021/01/03 00:56:20;;;;;;;6.40;5.68;;;2.50;99.90;;;;;;5037157;28;20666;-88
2021/01/03 00:58:47;;;;;;;8.55;6.35;;;2.40;99.90;;;;;;5036130;28;20211;-88
2021/01/03 01:01:13;;;;;;;6.53;5.38;;;2.50;99.90;;;;;;5037113;28;20329;-88
2021/01/03 01:03:40;;;;;;;5.05;4.55;;;2.50;99.90;;;;;;5035585;28;20227;-90
2021/01/03 01:06:06;;;;;;;7.78;6.38;;;2.40;99.90;;;;;;5036948;28;20282;-89
2021/01/03 01:08:35;;;;;;;7.82;5.93;;;2.40;99.90;;;;;;5037360;28;20226;-89
2021/01/03 01:11:03;;;;;;;9.48;6.03;;;2.40;99.90;;;;;;5037089;28;20238;-89
2021/01/03 01:13:30;;;;;;;7.13;5.95;;;2.40;99.90;;;;;;5036066;28;20203;-85
2021/01/03 01:15:56;;;;;;;12.85;6.80;;;2.40;99.90;;;;;;5036916;28;20289;-90
2021/01/03 01:18:22;;;;;;;7.28;4.80;;;2.40;99.90;;;;;;5037247;28;20715;-89
2021/01/03 01:20:49;;;;;;;12.18;6.32;;;2.40;99.90;;;;;;5037830;28;20271;-90
2021/01/03 01:23:15;;;;;;;8.60;5.68;;;2.40;99.90;;;;;;5037720;28;20213;-89
2021/01/03 01:25:43;;;;;;;9.60;5.93;;;2.40;99.90;;;;;;5038689;28;20250;-88
2021/01/03 01:28:09;;;;;;;9.18;6.18;;;2.40;99.90;;;;;;5035406;28;20293;-88
2021/01/03 01:30:37;;;;;;;7.03;5.43;;;2.30;99.90;;;;;;5037090;28;20222;-92
2021/01/03 01:33:05;;;;;;;9.68;6.93;;;2.30;99.90;;;;;;5035892;28;20233;-87
2021/01/03 01:35:35;;;;;;;9.05;5.30;;;2.20;99.90;;;;;;4997512;28;20298;-87
2021/01/03 01:38:03;;;;;;;7.43;5.75;;;2.20;99.90;;;;;;4997295;28;20240;-85
2021/01/03 01:40:33;;;;;;;9.32;6.00;;;2.10;99.90;;;;;;4997226;28;20295;-85
2021/01/03 01:43:00;;;;;;;7.00;6.00;;;2.10;99.90;;;;;;4995082;28;20282;-86
2021/01/03 01:45:31;;;;;;;6.22;5.57;;;2.10;99.90;;;;;;4996916;28;20208;-86
2021/01/03 01:48:02;;;;;;;11.90;7.47;;;2.10;99.90;;;;;;4996176;28;20204;-85
2021/01/03 01:50:36;;;;;;;9.82;6.20;;;1.90;99.90;;;;;;4997986;28;20310;-87
2021/01/03 01:53:07;;;;;;;9.82;6.47;;;1.90;99.90;;;;;;4997496;28;20275;-87
2021/01/03 01:55:39;;;;;;;16.63;7.13;;;1.90;99.90;;;;;;4997297;28;20264;-86
2021/01/03 01:58:13;;;;;;;8.98;6.18;;;1.80;99.90;;;;;;4996297;28;20211;-91
2021/01/03 02:00:44;;;;;;;10.98;6.10;;;1.80;99.90;;;;;;4997440;28;20326;-89
2021/01/03 02:03:18;;;;;;;8.45;6.70;;;1.80;99.90;;;;;;4996850;28;20211;-90
2021/01/03 02:05:48;;;;;;;10.30;6.82;;;1.80;99.90;;;;;;5016111;28;20575;-84
2021/01/03 02:08:29;;;;;;;11.25;7.97;;;1.80;99.90;;;;;;5016645;28;20213;-91
2021/01/03 02:10:55;;;;;;;8.85;6.55;;;1.90;99.90;;;;;;5016235;28;20235;-90
2021/01/03 02:13:28;;;;;;;11.35;7.30;;;1.90;99.90;;;;;;5014950;28;20207;-89
2021/01/03 02:15:59;;;;;;;10.65;6.53;;;1.80;99.90;;;;;;5016985;28;20246;-89
2021/01/03 02:18:26;;;;;;;11.32;7.97;;;1.80;99.90;;;;;;5016273;28;20214;-91
2021/01/03 02:21:02;;;;;;;7.38;6.20;;;1.70;99.90;;;;;;5015726;28;20226;-93
2021/01/03 02:23:37;;;;;;;11.23;8.05;;;1.70;99.90;;;;;;5020202;28;20293;-90
2021/01/03 02:26:06;;;;;;;12.70;7.57;;;1.60;99.90;;;;;;5016637;28;20207;-89
2021/01/03 02:28:38;;;;;;;12.88;7.25;;;1.60;99.90;;;;;;5015023;28;20214;-89
2021/01/03 02:31:05;;;;;;;9.10;5.90;;;1.50;99.90;;;;;;5015540;28;20234;-93
2021/01/03 02:33:37;;;;;;;12.93;7.93;;;1.50;99.90;;;;;;5019555;28;20302;-92
2021/01/03 02:36:09;;;;;;;14.82;9.35;;;1.50;99.90;;;;;;5038756;28;20225;-91
2021/01/03 02:38:40;;;;;;;14.57;8.50;;;1.50;99.90;;;;;;5037777;28;20282;-93
2021/01/03 02:41:07;;;;;;;11.07;7.75;;;1.50;99.90;;;;;;5042130;28;20223;-92
2021/01/03 02:43:33;;;;;;;13.93;7.82;;;1.50;99.90;;;;;;5036972;28;20207;-87
2021/01/03 02:46:00;;;;;;;15.40;7.20;;;1.60;99.90;;;;;;5034964;28;20210;-86
2021/01/03 02:48:27;;;;;;;12.32;8.13;;;1.50;99.90;;;;;;5035987;28;20214;-85
2021/01/03 02:50:53;;;;;;;17.75;10.30;;;1.50;99.90;;;;;;5034243;28;20597;-85
2021/01/03 02:53:21;;;;;;;16.10;7.68;;;1.50;99.90;;;;;;5034338;28;20263;-87
2021/01/03 02:55:48;;;;;;;14.35;9.45;;;1.50;99.90;;;;;;5034268;28;20234;-87
2021/01/03 02:58:15;;;;;;;14.55;9.35;;;1.50;99.90;;;;;;5032992;28;20289;-87
2021/01/03 03:00:42;;;;;;;16.70;8.65;;;1.50;99.90;;;;;;5034246;28;20793;-85
2021/01/03 03:03:10;;;;;;;12.68;8.90;;;1.60;99.90;;;;;;5034480;28;20211;-86
2021/01/03 03:05:37;;;;;;;12.32;9.48;;;1.60;99.90;;;;;;5032854;28;20294;-84
2021/01/03 03:08:05;;;;;;;18.02;8.93;;;1.60;99.90;;;;;;5033882;28;20581;-84
2021/01/03 03:10:31;;;;;;;20.58;10.23;;;1.60;99.90;;;;;;5033880;28;20207;-84
2021/01/03 03:12:59;;;;;;;16.83;9.85;;;1.60;99.90;;;;;;5032478;28;20244;-84
2021/01/03 03:15:28;;;;;;;13.98;9.45;;;1.50;99.90;;;;;;5031220;28;20203;-84
2021/01/03 03:17:55;;;;;;;19.10;10.18;;;1.60;99.90;;;;;;5033861;28;20206;-85
2021/01/03 03:20:22;;;;;;;23.50;10.68;;;1.60;99.90;;;;;;5033488;28;20289;-87
2021/01/03 03:22:51;;;;;;;16.77;10.98;;;1.50;99.90;;;;;;5033988;28;20285;-86
2021/01/03 03:25:19;;;;;;;19.88;11.38;;;1.50;99.90;;;;;;5034068;28;20203;-87
2021/01/03 03:27:45;;;;;;;14.77;9.07;;;1.50;99.90;;;;;;5032432;28;20293;-88
2021/01/03 03:30:16;;;;;;;17.98;10.68;;;1.50;99.90;;;;;;5033575;28;20629;-85
2021/01/03 03:32:43;;;;;;;18.15;9.25;;;1.50;99.90;;;;;;5033567;28;20234;-85
2021/01/03 03:35:11;;;;;;;20.63;12.13;;;1.50;99.90;;;;;;5032148;28;20215;-87
2021/01/03 03:37:39;;;;;;;16.58;10.23;;;1.50;99.90;;;;;;5033706;28;20294;-84
2021/01/03 03:40:07;;;;;;;14.75;10.02;;;1.50;99.90;;;;;;5033185;28;20202;-84
2021/01/03 03:42:33;;;;;;;17.95;10.20;;;1.40;99.90;;;;;;5032102;28;20221;-83
2021/01/03 03:45:00;;;;;;;16.75;9.82;;;1.50;99.90;;;;;;5033478;28;20294;-85
2021/01/03 03:47:27;;;;;;;22.50;11.27;;;1.40;99.90;;;;;;5033479;28;20237;-83
2021/01/03 03:49:55;;;;;;;20.35;11.30;;;1.40;99.90;;;;;;5033059;28;20210;-84
2021/01/03 03:52:22;;;;;;;17.42;10.88;;;1.40;99.90;;;;;;5033420;28;20321;-80
2021/01/03 03:54:48;;;;;;;17.60;9.75;;;1.40;99.90;;;;;;5033050;28;20297;-82
2021/01/03 03:57:14;;;;;;;14.55;9.38;;;1.50;99.90;;;;;;5032778;28;20287;-82
2021/01/03 03:59:41;;;;;;;18.67;10.95;;;1.50;99.90;;;;;;5032943;28;20316;-82
2021/01/03 04:02:07;;;;;;;23.33;13.45;;;1.50;99.90;;;;;;5033084;28;20329;-84
2021/01/03 04:04:34;;;;;;;17.95;11.18;;;1.40;99.90;;;;;;5031816;28;20666;-84
2021/01/03 04:07:01;;;;;;;16.10;11.35;;;1.40;99.90;;;;;;5033290;28;20297;-85
2021/01/03 04:09:27;;;;;;;20.02;10.35;;;1.40;99.90;;;;;;5032958;28;20237;-83
2021/01/03 04:11:54;;;;;;;13.05;9.43;;;1.50;99.90;;;;;;5032728;28;20328;-82
2021/01/03 04:14:23;;;;;;;21.38;11.18;;;1.40;99.90;;;;;;5032120;28;20214;-87
2021/01/03 04:16:50;;;;;;;17.42;10.35;;;1.30;99.90;;;;;;5033039;28;20203;-82
2021/01/03 04:19:17;;;;;;;16.15;11.18;;;1.40;99.90;;;;;;5032930;28;20199;-83
2021/01/03 04:21:49;;;;;;;18.85;10.85;;;1.30;99.90;;;;;;5033233;28;20306;-84
2021/01/03 04:24:16;;;;;;;19.00;12.57;;;1.40;99.90;;;;;;5033138;28;20299;-82
2021/01/03 04:26:44;;;;;;;19.20;12.27;;;1.30;99.90;;;;;;5032990;28;20629;-83
2021/01/03 04:29:10;;;;;;;20.40;11.73;;;1.30;99.90;;;;;;5031827;28;20207;-82
2021/01/03 04:31:36;;;;;;;15.73;9.98;;;1.30;99.90;;;;;;5032877;28;20235;-81
2021/01/03 04:34:03;;;;;;;19.75;12.10;;;1.40;99.90;;;;;;5031568;28;20306;-82
2021/01/03 04:36:29;;;;;;;18.75;11.75;;;1.40;99.90;;;;;;5032929;28;20799;-83
2021/01/03 04:38:55;;;;;;;20.35;12.82;;;1.40;99.90;;;;;;5033265;28;20293;-82
2021/01/03 04:41:28;;;;;;;19.75;11.73;;;1.50;99.90;;;;;;5033132;28;20199;-82
2021/01/03 04:44:00;;;;;;;21.83;12.65;;;1.50;99.90;;;;;;5031865;28;20286;-81
2021/01/03 04:46:32;;;;;;;21.85;11.23;;;1.50;99.90;;;;;;5033418;28;20615;-81
2021/01/03 04:49:03;;;;;;;22.77;13.75;;;1.50;99.90;;;;;;5032797;28;20298;-85
2021/01/03 04:51:35;;;;;;;22.48;11.70;;;1.50;99.90;;;;;;5033106;28;20237;-83
2021/01/03 04:54:11;;;;;;;14.20;10.65;;;1.40;99.90;;;;;;5033677;28;20310;-81
2021/01/03 04:56:51;;;;;;;20.75;14.93;;;1.30;99.90;;;;;;5040687;28;20202;-83
2021/01/03 04:59:28;;;;;;;21.38;12.43;;;1.30;99.90;;;;;;5053451;28;20214;-83
2021/01/03 05:02:35;;;;;;;18.90;11.55;;;1.40;99.90;;;;;;5052637;28;20238;-84
2021/01/03 05:05:27;;;;;;;21.20;12.38;;;1.50;99.90;;;;;;5042793;28;20242;-81
2021/01/03 05:08:02;;;;;;;21.95;11.73;;;1.50;99.90;;;;;;5034928;28;20294;-81
2021/01/03 05:10:29;;;;;;;15.80;10.57;;;1.50;99.90;;;;;;5032855;28;20596;-82
2021/01/03 05:13:05;;;;;;;14.70;11.40;;;1.40;99.90;;;;;;5031584;28;20290;-82
2021/01/03 05:15:34;;;;;;;15.75;10.48;;;1.30;99.90;;;;;;5029668;28;20214;-81
2021/01/03 05:18:02;;;;;;;17.77;10.80;;;1.30;99.90;;;;;;5032542;28;20242;-81
2021/01/03 05:20:28;;;;;;;17.27;10.90;;;1.30;99.90;;;;;;5032168;28;20286;-83
2021/01/03 05:23:11;;;;;;;19.95;11.07;;;1.30;99.90;;;;;;5033689;28;20207;-82
2021/01/03 05:25:40;;;;;;;15.45;10.93;;;1.30;99.90;;;;;;5036245;28;20294;-82
2021/01/03 05:28:13;;;;;;;21.67;12.65;;;1.30;99.90;;;;;;5034887;28;20266;-82
2021/01/03 05:30:39;;;;;;;19.27;12.10;;;1.30;99.90;;;;;;5034625;28;20207;-80
2021/01/03 05:33:08;;;;;;;19.35;11.55;;;1.20;99.90;;;;;;5035867;28;20238;-81
2021/01/03 05:35:40;;;;;;;18.33;11.75;;;1.30;99.90;;;;;;5035834;28;20686;-82
2021/01/03 05:38:08;;;;;;;16.60;11.02;;;1.40;99.90;;;;;;5035713;28;20207;-82
2021/01/03 05:40:36;;;;;;;18.55;10.50;;;1.30;99.90;;;;;;5035839;28;20209;-81
2021/01/03 05:43:20;;;;;;;20.10;12.48;;;1.30;99.90;;;;;;5034350;28;20207;-85
2021/01/03 05:46:00;;;;;;;22.25;12.88;;;1.30;99.90;;;;;;5035589;28;20225;-84
2021/01/03 05:48:28;;;;;;;21.45;13.40;;;1.30;99.90;;;;;;5035532;28;20209;-84
2021/01/03 05:50:55;;;;;;;17.67;11.50;;;1.30;99.90;;;;;;5035506;28;20276;-84
2021/01/03 05:53:25;;;;;;;21.13;11.68;;;1.20;99.90;;;;;;5035393;28;20281;-83
2021/01/03 05:55:55;;;;;;;16.30;10.88;;;1.20;99.90;;;;;;5023258;28;20216;-84
2021/01/03 05:58:29;;;;;;;15.73;10.95;;;1.20;99.90;;;;;;5014350;28;20211;-84
2021/01/03 06:00:56;;;;;;;23.58;10.75;;;1.10;99.90;;;;;;5015594;28;20243;-83
2021/01/03 06:03:27;;;;;;;19.23;12.63;;;1.20;99.90;;;;;;5016482;28;20576;-86
2021/01/03 06:05:57;;;;;;;17.95;12.10;;;1.20;99.90;;;;;;5034716;28;20260;-83
2021/01/03 06:08:25;;;;;;;21.70;11.80;;;1.30;99.90;;;;;;5035283;28;20207;-83
2021/01/03 06:10:52;;;;;;;22.27;11.60;;;1.30;99.90;;;;;;5035259;28;20235;-86
2021/01/03 06:13:26;;;;;;;22.67;11.98;;;1.20;99.90;;;;;;5033906;28;20297;-83
2021/01/03 06:15:57;;;;;;;23.50;13.10;;;1.30;99.90;;;;;;5035145;28;20210;-85
2021/01/03 06:18:34;;;;;;;20.50;13.30;;;1.20;99.90;;;;;;5035016;28;20249;-84
2021/01/03 06:21:00;;;;;;;21.73;14.07;;;1.20;99.90;;;;;;5034954;28;20654;-84
2021/01/03 06:23:33;;;;;;;28.67;14.88;;;1.20;99.90;;;;;;5035032;28;20290;-84
2021/01/03 06:26:05;;;;;;;24.75;13.60;;;1.20;99.90;;;;;;5034936;28;20214;-87
2021/01/03 06:28:44;;;;;;;24.98;13.00;;;1.20;99.90;;;;;;5033828;28;20238;-87
2021/01/03 06:31:40;;;;;;;17.08;11.55;;;1.10;99.90;;;;;;5033353;28;20790;-85
2021/01/03 06:34:25;;;;;;;21.67;11.82;;;1.20;99.90;;;;;;5033895;28;20199;-85
2021/01/03 06:37:03;;;;;;;22.15;13.45;;;1.20;99.90;;;;;;5034755;28;20213;-86
2021/01/03 06:39:36;;;;;;;19.05;12.80;;;1.10;99.90;;;;;;5034633;28;20224;-84
2021/01/03 06:42:06;;;;;;;21.45;13.05;;;1.20;99.90;;;;;;5034791;28;20285;-85
2021/01/03 06:44:53;;;;;;;24.48;12.93;;;1.20;99.90;;;;;;5033310;28;20330;-85
2021/01/03 06:47:44;;;;;;;18.63;12.70;;;1.20;99.90;;;;;;5034442;28;20198;-86
2021/01/03 06:50:41;;;;;;;20.42;12.00;;;1.20;99.90;;;;;;5034737;28;20211;-87
2021/01/03 06:53:29;;;;;;;20.33;10.95;;;1.30;99.90;;;;;;5034820;28;20264;-84
2021/01/03 06:56:17;;;;;;;25.50;13.43;;;1.30;99.90;;;;;;5022687;28;20668;-85
2021/01/03 06:59:25;;;;;;;26.70;13.18;;;1.30;99.90;;;;;;5033460;28;20689;-86
2021/01/03 07:01:51;;;;;;;20.20;12.50;;;1.30;99.90;;;;;;5002867;28;20322;-87
2021/01/03 07:04:26;;;;;;;24.05;12.70;;;1.30;99.90;;;;;;5024217;28;20234;-87
2021/01/03 07:06:55;;;;;;;20.55;12.43;;;1.30;99.90;;;;;;5035353;28;20297;-85
2021/01/03 07:09:21;;;;;;;32.15;14.50;;;1.30;99.90;;;;;;5034467;28;20285;-83
2021/01/03 07:11:50;;;;;;;18.23;10.98;;;1.10;99.90;;;;;;5034587;28;20306;-85
2021/01/03 07:14:53;;;;;;;25.58;12.77;;;1.30;99.90;;;;;;5033351;28;20207;-84
2021/01/03 07:17:26;;;;;;;23.45;13.45;;;1.20;99.90;;;;;;5035163;28;20207;-87
2021/01/03 07:20:02;;;;;;;22.00;14.30;;;1.30;99.90;;;;;;5035904;28;20213;-86
2021/01/03 07:22:36;;;;;;;22.88;12.68;;;1.30;99.90;;;;;;5035537;28;20309;-84
2021/01/03 07:25:19;;;;;;;22.35;12.40;;;1.30;99.90;;;;;;5035727;28;20261;-84
2021/01/03 07:28:04;;;;;;;23.35;13.57;;;1.30;99.90;;;;;;5033744;28;20287;-84
2021/01/03 07:30:40;;;;;;;22.67;13.07;;;1.30;99.90;;;;;;5034762;28;20681;-84
2021/01/03 07:33:20;;;;;;;19.65;11.90;;;1.40;99.90;;;;;;5035388;28;20262;-84
2021/01/03 07:35:47;;;;;;;23.33;13.55;;;1.50;99.90;;;;;;4996846;28;20571;-84
2021/01/03 07:38:25;;;;;;;22.00;13.77;;;1.50;99.90;;;;;;4998656;28;20278;-84
2021/01/03 07:40:56;;;;;;;25.60;12.73;;;1.50;99.90;;;;;;4996909;28;20271;-84
2021/01/03 07:43:24;;;;;;;20.08;12.57;;;1.40;99.90;;;;;;4995788;28;20215;-84
2021/01/03 07:45:51;;;;;;;20.70;12.48;;;1.50;99.90;;;;;;4996329;28;20369;-83
2021/01/03 07:48:38;;;;;;;18.85;10.88;;;1.60;99.90;;;;;;4996455;28;20228;-83
2021/01/03 07:51:10;;;;;;;18.00;12.38;;;1.50;99.90;;;;;;4995882;28;20629;-84
2021/01/03 07:53:38;;;;;;;27.17;14.00;;;1.50;99.90;;;;;;4995411;28;20235;-87
2021/01/03 07:56:18;;;;;;;18.48;11.68;;;1.60;99.90;;;;;;4994723;28;20298;-82
2021/01/03 07:58:45;;;;;;;18.13;10.02;;;1.70;99.90;;;;;;4993363;28;20234;-84
2021/01/03 08:01:15;;;;;;;20.90;12.35;;;1.60;99.90;;;;;;4994708;28;20243;-85
2021/01/03 08:03:42;;;;;;;23.00;10.93;;;1.60;99.90;;;;;;5006059;28;20206;-81
2021/01/03 08:06:12;;;;;;;27.48;14.30;;;1.70;99.90;;;;;;5033488;28;20206;-81
2021/01/03 08:08:39;;;;;;;29.52;12.82;;;1.80;99.90;;;;;;5033166;28;20206;-80
2021/01/03 08:11:10;;;;;;;22.02;13.05;;;1.80;99.90;;;;;;5033474;28;20297;-85
2021/01/03 08:13:42;;;;;;;24.50;13.07;;;1.80;99.90;;;;;;5032440;28;20207;-84
2021/01/03 08:16:09;;;;;;;19.88;10.82;;;1.90;99.90;;;;;;5033711;28;20278;-83
2021/01/03 08:18:40;;;;;;;24.30;12.57;;;1.90;99.90;;;;;;5033126;28;20239;-85
2021/01/03 08:21:16;;;;;;;22.17;11.52;;;1.90;99.90;;;;;;5033979;28;20290;-86
2021/01/03 08:23:42;;;;;;;21.70;12.27;;;1.90;99.90;;;;;;5034506;28;20748;-86
2021/01/03 08:29:40;;;;;;;20.98;11.23;;;1.90;99.90;;;;;;5032366;28;20202;-85
2021/01/03 08:32:09;;;;;;;22.25;14.32;;;1.90;99.90;;;;;;5032368;28;20612;-86
2021/01/03 08:34:39;;;;;;;19.42;11.55;;;1.80;99.90;;;;;;5033670;28;20293;-86
2021/01/03 08:37:19;;;;;;;22.98;14.80;;;1.90;99.90;;;;;;5033223;28;20297;-85
2021/01/03 08:39:47;;;;;;;15.90;10.40;;;1.90;99.90;;;;;;5033190;28;20238;-87
2021/01/03 08:42:19;;;;;;;20.98;11.13;;;1.90;99.90;;;;;;5032849;28;20290;-84
2021/01/03 08:44:50;;;;;;;21.67;11.20;;;2.00;99.90;;;;;;5032729;28;20238;-86
2021/01/03 08:47:21;;;;;;;20.42;11.18;;;2.10;99.90;;;;;;5032991;28;20207;-85
2021/01/03 08:49:47;;;;;;;15.55;10.30;;;2.00;99.90;;;;;;5032613;28;20298;-85
2021/01/03 08:52:19;;;;;;;21.52;10.63;;;1.90;99.90;;;;;;5033056;28;20325;-85
2021/01/03 08:54:47;;;;;;;21.25;10.70;;;1.90;99.90;;;;;;5033032;28;20290;-86
2021/01/03 08:57:15;;;;;;;23.02;13.38;;;1.90;99.90;;;;;;5032990;28;20686;-85
2021/01/03 08:59:42;;;;;;;14.75;9.32;;;1.90;99.90;;;;;;5036150;28;20672;-86
2021/01/03 09:02:22;;;;;;;17.83;11.07;;;1.80;99.90;;;;;;5036540;28;20317;-86
2021/01/03 09:04:50;;;;;;;24.05;13.27;;;1.80;99.90;;;;;;5037475;28;20227;-86
2021/01/03 09:07:17;;;;;;;22.90;12.50;;;1.60;99.90;;;;;;5034973;28;20349;-85
2021/01/03 09:09:49;;;;;;;18.63;12.10;;;1.80;99.90;;;;;;5037362;28;20207;-85
2021/01/03 09:12:31;;;;;;;17.92;10.23;;;1.70;99.90;;;;;;5035880;28;20758;-84
2021/01/03 09:15:00;;;;;;;20.30;11.43;;;1.60;99.90;;;;;;5036357;28;20302;-85
2021/01/03 09:17:33;;;;;;;17.70;10.48;;;1.70;99.90;;;;;;5037032;28;20261;-85
2021/01/03 09:20:13;;;;;;;22.83;11.98;;;1.80;99.90;;;;;;5036771;28;20262;-86
2021/01/03 09:22:44;;;;;;;17.45;10.18;;;1.80;99.90;;;;;;5036061;28;20557;-85
2021/01/03 09:25:19;;;;;;;15.50;9.85;;;1.80;99.90;;;;;;5036264;28;20307;-85
2021/01/03 09:27:51;;;;;;;20.65;11.40;;;2.00;99.90;;;;;;5034894;28;20297;-85
2021/01/03 09:30:30;;;;;;;17.77;10.50;;;2.00;99.90;;;;;;5035957;28;20286;-84
2021/01/03 09:33:08;;;;;;;17.35;11.90;;;2.00;99.90;;;;;;5034659;28;20322;-86
2021/01/03 09:35:46;;;;;;;14.00;9.95;;;1.80;99.90;;;;;;5035990;28;20353;-84
2021/01/03 09:38:29;;;;;;;24.58;13.23;;;1.90;99.90;;;;;;5034082;28;20210;-86
2021/01/03 09:41:05;;;;;;;19.90;12.00;;;1.90;99.90;;;;;;5035642;28;20207;-85
2021/01/03 09:43:41;;;;;;;16.85;9.93;;;2.00;99.90;;;;;;5034394;28;20297;-85
2021/01/03 09:46:20;;;;;;;21.05;11.32;;;2.10;99.90;;;;;;5035595;28;20568;-84
2021/01/03 09:48:47;;;;;;;20.20;11.35;;;2.30;99.90;;;;;;5035491;28;20297;-84
2021/01/03 09:51:35;;;;;;;21.27;14.77;;;2.30;99.90;;;;;;5035407;28;20199;-85
2021/01/03 09:54:09;;;;;;;17.08;10.85;;;2.30;99.90;;;;;;5032606;28;20721;-85
2021/01/03 09:56:37;;;;;;;17.00;10.15;;;2.20;99.90;;;;;;5034364;28;20288;-84
2021/01/03 09:59:14;;;;;;;16.30;11.93;;;2.50;99.90;;;;;;5034267;28;20294;-83
2021/01/03 10:01:41;;;;;;;17.10;10.63;;;2.60;99.90;;;;;;5035261;28;20713;-84
2021/01/03 10:04:17;;;;;;;20.90;12.75;;;2.40;99.90;;;;;;5034497;28;20294;-85
2021/01/03 10:06:46;;;;;;;15.55;10.45;;;2.40;99.90;;;;;;5035622;28;20341;-85
2021/01/03 10:09:16;;;;;;;16.00;10.75;;;2.40;99.90;;;;;;5037469;28;20249;-85
2021/01/03 10:11:44;;;;;;;17.00;10.57;;;2.30;99.90;;;;;;5040135;28;20237;-85
2021/01/03 10:14:14;;;;;;;20.90;11.80;;;2.40;99.90;;;;;;5040023;28;20303;-84
2021/01/03 10:16:43;;;;;;;14.20;10.88;;;2.40;99.90;;;;;;5037195;28;20332;-87
2021/01/03 10:19:14;;;;;;;14.05;9.52;;;2.70;99.90;;;;;;5035935;28;20207;-86
2021/01/03 10:21:42;;;;;;;14.50;9.40;;;2.50;99.90;;;;;;5036085;28;20250;-86
2021/01/03 10:24:16;;;;;;;17.10;11.75;;;2.40;99.90;;;;;;5035830;28;20297;-85
2021/01/03 10:26:44;;;;;;;19.00;12.25;;;2.40;99.90;;;;;;5035412;28;20732;-86
2021/01/03 10:29:11;;;;;;;21.55;11.57;;;2.10;99.90;;;;;;5033741;28;20294;-87
2021/01/03 10:31:40;;;;;;;19.40;11.25;;;2.20;99.90;;;;;;5034984;28;20641;-87
2021/01/03 10:34:07;;;;;;;13.18;9.98;;;2.30;99.90;;;;;;5033704;28;20401;-86
2021/01/03 10:36:33;;;;;;;16.45;10.30;;;2.30;99.90;;;;;;5035003;28;20765;-86
2021/01/03 10:39:00;;;;;;;19.27;11.95;;;2.40;99.90;;;;;;5035214;28;20286;-86
2021/01/03 10:41:30;;;;;;;15.88;10.95;;;2.30;99.90;;;;;;5034646;28;20207;-86
2021/01/03 10:43:57;;;;;;;19.90;11.45;;;2.40;99.90;;;;;;5033320;28;20207;-85
2021/01/03 10:46:23;;;;;;;18.02;11.43;;;2.60;99.90;;;;;;5034806;28;20720;-87
2021/01/03 10:48:50;;;;;;;17.23;10.32;;;2.50;99.90;;;;;;5034413;28;20266;-87
2021/01/03 10:51:17;;;;;;;19.30;11.63;;;2.60;99.90;;;;;;5034922;28;20214;-88
2021/01/03 10:53:43;;;;;;;21.75;11.98;;;2.60;99.90;;;;;;5034533;28;20617;-87
2021/01/03 10:56:10;;;;;;;18.15;12.98;;;2.80;99.90;;;;;;5034406;28;20682;-88
2021/01/03 10:58:40;;;;;;;18.33;12.25;;;2.80;99.90;;;;;;5032925;28;20299;-88
2021/01/03 11:01:07;;;;;;;19.63;11.50;;;2.70;99.90;;;;;;5034627;28;20230;-89
2021/01/03 11:03:33;;;;;;;14.65;11.65;;;2.70;99.90;;;;;;5033976;28;20290;-90
2021/01/03 11:05:59;;;;;;;16.48;11.50;;;2.70;99.90;;;;;;5036405;28;20205;-90
2021/01/03 11:08:26;;;;;;;22.58;12.32;;;2.60;99.90;;;;;;5035479;28;20229;-87
2021/01/03 11:10:52;;;;;;;17.73;11.75;;;2.60;99.90;;;;;;5034234;28;20247;-87
2021/01/03 11:13:19;;;;;;;19.30;10.70;;;2.70;99.90;;;;;;5034410;28;20227;-86
2021/01/03 11:15:48;;;;;;;14.45;9.50;;;2.50;99.90;;;;;;5036651;28;20242;-87
2021/01/03 11:18:14;;;;;;;16.30;11.00;;;2.50;99.90;;;;;;5037916;28;20290;-88
2021/01/03 11:20:41;;;;;;;19.60;12.05;;;2.40;99.90;;;;;;5038955;28;20261;-87
2021/01/03 11:23:07;;;;;;;16.70;10.95;;;2.30;99.90;;;;;;5042306;28;20257;-89
2021/01/03 11:25:33;;;;;;;19.00;11.52;;;2.30;99.90;;;;;;5053829;28;20193;-87
2021/01/03 11:28:00;;;;;;;22.65;12.70;;;2.30;99.90;;;;;;5052840;28;20203;-87
2021/01/03 11:30:26;;;;;;;21.75;12.77;;;2.50;99.90;;;;;;5050610;28;20234;-87
2021/01/03 11:32:54;;;;;;;16.63;10.95;;;2.40;99.90;;;;;;5035458;28;20305;-89
2021/01/03 11:35:20;;;;;;;22.65;12.10;;;2.40;99.90;;;;;;5015744;28;20246;-88
2021/01/03 11:37:48;;;;;;;17.33;11.30;;;2.50;99.90;;;;;;5014330;28;20341;-88
2021/01/03 11:40:16;;;;;;;17.20;12.20;;;2.70;99.90;;;;;;5014478;28;20407;-86
2021/01/03 11:42:42;;;;;;;14.73;10.57;;;2.60;99.90;;;;;;5013060;28;20298;-87
2021/01/03 11:45:12;;;;;;;21.75;11.80;;;2.60;99.90;;;;;;5014087;28;20231;-88
2021/01/03 11:47:39;;;;;;;16.33;10.75;;;2.40;99.90;;;;;;5014213;28;20200;-86
2021/01/03 11:50:10;;;;;;;19.83;13.05;;;2.70;99.90;;;;;;5011217;28;20203;-85
2021/01/03 11:52:37;;;;;;;18.67;11.20;;;2.50;99.90;;;;;;5014021;28;20318;-86
2021/01/03 11:55:05;;;;;;;15.98;10.10;;;2.50;99.90;;;;;;5013971;28;20299;-88
2021/01/03 11:57:31;;;;;;;16.55;11.55;;;2.80;99.90;;;;;;5008934;28;20253;-87
2021/01/03 11:59:57;;;;;;;17.65;10.98;;;2.80;99.90;;;;;;5032839;28;20657;-88
2021/01/03 12:02:24;;;;;;;15.85;11.02;;;2.70;99.90;;;;;;5033300;28;20297;-88
2021/01/03 12:04:50;;;;;;;20.25;12.98;;;2.50;99.90;;;;;;5033275;28;20242;-88
2021/01/03 12:07:20;;;;;;;16.65;11.50;;;2.60;99.90;;;;;;5033424;28;20290;-89
2021/01/03 12:09:47;;;;;;;17.27;11.77;;;2.60;99.90;;;;;;5033276;28;20340;-87
2021/01/03 12:12:18;;;;;;;24.10;15.10;;;2.80;99.90;;;;;;5033255;28;20322;-88
2021/01/03 12:14:44;;;;;;;17.17;12.32;;;2.60;99.90;;;;;;5032523;28;20294;-86
2021/01/03 12:17:12;;;;;;;14.68;10.57;;;2.60;99.90;;;;;;5033594;28;20298;-88
2021/01/03 12:19:39;;;;;;;18.60;12.30;;;2.70;99.90;;;;;;5033161;28;20207;-89
2021/01/03 12:22:07;;;;;;;20.02;12.38;;;2.90;99.90;;;;;;5033896;28;20313;-91
2021/01/03 12:24:35;;;;;;;16.98;11.50;;;3.10;99.90;;;;;;5033225;28;20210;-88
2021/01/03 12:27:02;;;;;;;17.70;11.65;;;3.30;99.90;;;;;;5033270;28;20301;-84
2021/01/03 12:29:30;;;;;;;20.95;13.00;;;3.20;99.90;;;;;;5014633;28;20223;-88
2021/01/03 12:32:00;;;;;;;16.67;10.90;;;3.20;99.90;;;;;;5015250;28;20322;-87
2021/01/03 12:34:28;;;;;;;19.30;12.00;;;3.20;99.90;;;;;;5030236;28;20290;-89
2021/01/03 12:37:01;;;;;;;19.15;13.48;;;3.20;99.90;;;;;;5037354;28;20304;-84
2021/01/03 12:39:28;;;;;;;17.90;11.10;;;3.30;99.90;;;;;;5036994;28;20297;-89
2021/01/03 12:41:56;;;;;;;16.90;11.05;;;3.30;99.90;;;;;;5037482;28;20305;-87
2021/01/03 12:44:23;;;;;;;15.15;11.52;;;3.20;99.90;;;;;;5035725;28;20629;-90
2021/01/03 12:46:50;;;;;;;22.35;11.65;;;3.30;99.90;;;;;;5037007;28;20293;-89
2021/01/03 12:49:18;;;;;;;19.70;11.07;;;3.10;99.90;;;;;;5037158;28;20620;-91
2021/01/03 12:51:44;;;;;;;15.52;10.98;;;3.40;99.90;;;;;;5037683;28;20333;-89
2021/01/03 12:54:11;;;;;;;14.65;9.07;;;3.30;99.90;;;;;;5037679;28;20245;-88
2021/01/03 12:56:37;;;;;;;17.77;12.00;;;3.30;99.90;;;;;;5037015;28;20290;-91
2021/01/03 12:59:05;;;;;;;18.33;10.65;;;3.20;99.90;;;;;;5036132;28;20289;-91
2021/01/03 13:01:34;;;;;;;15.07;10.13;;;3.60;99.90;;;;;;5036791;28;20262;-89